createdAt,value
2022-11-05T00:01:08.393Z,100538.94
2022-11-05T00:06:30.605Z,100546.97
2022-11-05T00:11:51.672Z,100550.97
2022-11-05T00:16:56.342Z,100555.31
2022-11-05T00:22:18.470Z,100562.78
2022-11-05T00:27:21.880Z,100566.25
2022-11-05T00:32:25.346Z,100570.00
2022-11-05T00:37:30.255Z,100577.69
2022-11-05T00:42:51.031Z,100584.94
2022-11-05T00:48:12.112Z,100598.16
2022-11-05T00:53:16.919Z,100589.94
2022-11-05T00:58:21.881Z,100590.41
2022-11-05T01:03:28.389Z,100594.00
2022-11-05T01:08:33.249Z,100596.25
2022-11-05T01:13:36.872Z,100603.56
2022-11-05T01:18:40.452Z,100615.47
2022-11-05T01:23:45.230Z,100619.78
2022-11-05T01:28:51.787Z,100621.38
2022-11-05T01:33:55.281Z,100622.47
2022-11-05T01:39:00.044Z,100622.91
2022-11-05T01:44:03.481Z,100623.81
2022-11-05T01:49:11.791Z,100627.41
2022-11-05T01:54:19.479Z,100625.78
2022-11-05T01:59:26.053Z,100624.13
2022-11-05T02:04:32.998Z,100632.91
2022-11-05T02:09:42.226Z,100633.03
2022-11-05T02:14:45.596Z,100641.63
2022-11-05T02:20:14.589Z,100637.69
2022-11-05T02:25:31.240Z,100632.75
2022-11-05T02:30:43.518Z,100631.78
2022-11-05T02:36:23.737Z,100634.94
2022-11-05T02:41:32.967Z,100634.31
2022-11-05T02:46:45.039Z,100629.03
2022-11-05T02:51:53.218Z,100635.19
2022-11-05T02:56:58.228Z,100635.81
2022-11-05T03:02:03.709Z,100637.03
2022-11-05T03:07:20.501Z,100641.94
2022-11-05T03:12:31.976Z,100640.88
2022-11-05T03:17:39.484Z,100649.00
2022-11-05T03:22:46.959Z,100652.47
2022-11-05T03:27:54.867Z,100649.53
2022-11-05T03:33:01.431Z,100660.09
2022-11-05T03:38:08.393Z,100663.69
2022-11-05T03:43:13.061Z,100667.50
2022-11-05T03:48:19.849Z,100669.09
2022-11-05T03:53:25.554Z,100680.81
2022-11-05T03:58:30.219Z,100682.03
2022-11-05T04:03:36.549Z,100687.06
2022-11-05T04:08:57.688Z,100695.41
2022-11-05T04:14:01.161Z,100699.94
2022-11-05T04:19:06.080Z,100705.16
2022-11-05T04:24:16.384Z,100715.72
2022-11-05T04:29:37.216Z,100733.69
2022-11-05T04:34:42.019Z,100719.84
2022-11-05T04:39:45.395Z,100724.19
2022-11-05T04:44:48.794Z,100729.78
2022-11-05T04:49:53.547Z,100737.13
2022-11-05T04:54:57.216Z,100743.25
2022-11-05T05:00:00.651Z,100742.78
2022-11-05T05:05:06.011Z,100746.94
2022-11-05T05:10:10.336Z,100752.22
2022-11-05T05:15:13.779Z,100755.06
2022-11-05T05:20:35.951Z,100752.75
2022-11-05T05:25:39.372Z,100756.63
2022-11-05T05:30:42.748Z,100758.69
2022-11-05T05:35:47.530Z,100758.97
2022-11-05T05:40:51.072Z,100770.75
2022-11-05T05:45:54.597Z,100778.00
2022-11-05T05:51:02.799Z,100786.28
2022-11-05T05:56:06.974Z,100793.59
2022-11-05T06:01:18.265Z,100789.38
2022-11-05T06:06:23.985Z,100792.09
2022-11-05T06:11:27.376Z,100785.31
2022-11-05T06:16:35.405Z,100795.69
2022-11-05T06:21:40.228Z,100803.59
2022-11-05T06:26:44.976Z,100803.13
2022-11-05T06:31:48.419Z,100807.00
2022-11-05T06:36:53.220Z,100809.84
2022-11-05T06:42:17.149Z,100819.00
2022-11-05T06:47:20.152Z,100825.31
2022-11-05T06:52:27.100Z,100828.34
2022-11-05T06:57:30.625Z,100845.88
2022-11-05T07:02:34.024Z,100852.66
2022-11-05T07:07:38.961Z,100858.69
2022-11-05T07:12:42.361Z,100849.50
2022-11-05T07:17:45.771Z,100854.47
2022-11-05T07:22:50.673Z,100859.72
2022-11-05T07:27:54.079Z,100867.25
2022-11-05T07:32:57.892Z,100869.75
2022-11-05T07:38:02.837Z,100871.03
2022-11-05T07:43:06.355Z,100883.31
2022-11-05T07:48:10.992Z,100879.03
2022-11-05T07:53:15.838Z,100883.72
2022-11-05T07:58:19.437Z,100875.56
2022-11-05T08:03:22.944Z,100888.47
2022-11-05T08:08:27.805Z,100888.38
2022-11-05T08:13:36.212Z,100890.59
2022-11-05T08:18:39.618Z,100907.09
2022-11-05T08:23:44.351Z,100909.44
2022-11-05T08:28:47.716Z,100915.84
2022-11-05T08:33:51.068Z,100911.34
2022-11-05T08:38:56.226Z,100926.41
2022-11-05T08:43:59.605Z,100930.03
2022-11-05T08:49:03.118Z,100938.81
2022-11-05T08:54:08.245Z,100939.97
2022-11-05T08:59:11.631Z,100938.53
2022-11-05T09:04:14.991Z,100934.00
2022-11-05T09:09:19.784Z,100943.78
2022-11-05T09:14:23.177Z,100940.03
2022-11-05T09:19:26.558Z,100945.25
2022-11-05T09:24:31.269Z,100962.28
2022-11-05T09:29:34.712Z,100969.34
2022-11-05T09:34:38.098Z,100963.31
2022-11-05T09:39:42.893Z,100974.25
2022-11-05T09:44:49.031Z,100975.81
2022-11-05T09:49:53.657Z,100975.59
2022-11-05T09:54:58.766Z,100977.28
2022-11-05T10:00:05.382Z,100972.28
2022-11-05T10:05:12.771Z,100975.25
2022-11-05T10:10:28.125Z,100979.69
2022-11-05T10:15:33.445Z,100982.59
2022-11-05T10:20:38.754Z,100986.22
2022-11-05T10:25:46.476Z,100982.09
2022-11-05T10:30:51.432Z,100993.72
2022-11-05T10:35:57.135Z,100988.75
2022-11-05T10:41:11.016Z,100995.91
2022-11-05T10:46:25.076Z,100993.72
2022-11-05T10:51:28.574Z,100988.38
2022-11-05T10:56:35.709Z,100993.09
2022-11-05T11:01:39.201Z,100990.91
2022-11-05T11:06:49.635Z,100996.44
2022-11-05T11:12:01.855Z,100987.41
2022-11-05T11:17:26.657Z,100990.53
2022-11-05T11:22:30.172Z,100991.50
2022-11-05T11:27:35.691Z,100986.06
2022-11-05T11:32:40.457Z,100994.22
2022-11-05T11:37:43.933Z,100989.69
2022-11-05T11:42:50.383Z,101000.44
2022-11-05T11:47:55.980Z,100996.00
2022-11-05T11:53:17.737Z,100990.78
2022-11-05T11:58:23.491Z,100986.72
2022-11-05T12:03:32.358Z,100983.91
2022-11-05T12:08:45.870Z,100989.38
2022-11-05T12:14:11.125Z,100981.38
2022-11-05T12:19:23.897Z,100972.19
2022-11-05T12:24:54.855Z,100964.44
2022-11-05T12:30:04.483Z,100968.81
2022-11-05T12:35:19.272Z,100952.88
2022-11-05T12:40:36.685Z,100947.91
2022-11-05T12:45:46.810Z,100952.22
2022-11-05T12:50:53.441Z,100950.06
2022-11-05T12:55:59.081Z,100954.75
2022-11-05T13:01:06.025Z,100951.09
2022-11-05T13:06:13.560Z,100953.31
2022-11-05T13:11:21.545Z,100956.28
2022-11-05T13:16:30.577Z,100952.38
2022-11-05T13:21:36.013Z,100947.19
2022-11-05T13:26:44.542Z,100949.44
2022-11-05T13:31:54.149Z,100953.06
2022-11-05T13:37:16.948Z,100953.16
2022-11-05T13:42:52.645Z,100939.78
2022-11-05T13:48:25.339Z,100945.56
2022-11-05T13:53:42.745Z,100948.28
2022-11-05T13:59:07.792Z,100950.03
2022-11-05T14:04:21.586Z,100950.63
2022-11-05T14:09:27.362Z,100948.34
2022-11-05T14:14:35.104Z,100949.50
2022-11-05T14:19:52.288Z,100943.41
2022-11-05T14:24:55.722Z,100950.13
2022-11-05T14:29:59.162Z,100955.22
2022-11-05T14:35:06.088Z,100954.78
2022-11-05T14:40:31.933Z,100951.69
2022-11-05T14:45:37.512Z,100952.56
2022-11-05T14:50:43.103Z,100958.53
2022-11-05T14:55:46.480Z,100961.34
2022-11-05T15:00:50.230Z,100964.97
2022-11-05T15:06:05.574Z,100977.09
2022-11-05T15:11:14.054Z,100971.63
2022-11-05T15:16:21.861Z,100971.31
2022-11-05T15:21:27.012Z,100960.91
2022-11-05T15:26:38.990Z,100970.59
2022-11-05T15:31:45.208Z,100973.94
2022-11-05T15:36:54.279Z,100972.44
2022-11-05T15:41:58.295Z,100978.25
2022-11-05T15:47:20.397Z,100983.97
2022-11-05T15:52:31.600Z,100986.50
2022-11-05T15:57:39.910Z,100982.41
2022-11-05T16:02:44.162Z,100978.19
2022-11-05T16:07:49.321Z,100982.38
2022-11-05T16:12:52.873Z,100968.88
2022-11-05T16:17:57.460Z,100975.78
2022-11-05T16:23:03.622Z,100970.91
2022-11-05T16:28:16.732Z,100958.78
2022-11-05T16:33:20.164Z,100965.69
2022-11-05T16:38:25.217Z,100969.84
2022-11-05T16:43:28.616Z,100966.00
2022-11-05T16:48:32.013Z,100980.31
2022-11-05T16:53:37.672Z,100980.78
2022-11-05T16:58:41.203Z,100989.91
2022-11-05T17:03:45.199Z,100984.69
2022-11-05T17:08:50.101Z,100986.44
2022-11-05T17:13:53.493Z,100989.84
2022-11-05T17:18:57.231Z,101000.00
2022-11-05T17:24:01.999Z,101005.09
2022-11-05T17:29:05.808Z,101008.44
2022-11-05T17:34:10.454Z,101011.84
2022-11-05T17:39:15.228Z,101009.19
2022-11-05T17:44:18.643Z,101000.75
2022-11-05T17:49:22.058Z,101005.94
2022-11-05T17:54:26.925Z,101014.06
2022-11-05T17:59:30.602Z,101028.31
2022-11-05T18:04:34.075Z,101031.56
2022-11-05T18:09:38.820Z,101033.91
2022-11-05T18:14:42.245Z,101025.69
2022-11-05T18:19:46.073Z,101026.88
2022-11-05T18:24:50.931Z,101030.03
2022-11-05T18:29:54.877Z,101023.84
2022-11-05T18:34:58.314Z,101009.72
2022-11-05T18:40:03.127Z,101001.72
2022-11-05T18:45:07.795Z,100996.53
2022-11-05T18:50:11.324Z,100989.16
2022-11-05T18:55:16.214Z,100993.88
2022-11-05T19:00:20.175Z,100995.66
2022-11-05T19:05:30.888Z,100999.09
2022-11-05T19:10:35.724Z,100991.56
2022-11-05T19:15:42.671Z,100999.56
2022-11-05T19:20:46.218Z,101002.94
2022-11-05T19:25:51.303Z,101003.66
2022-11-05T19:30:54.720Z,100996.66
2022-11-05T19:35:58.513Z,100993.78
2022-11-05T19:41:07.877Z,100983.38
2022-11-05T19:46:16.180Z,100984.09
2022-11-05T19:51:20.883Z,100986.53
2022-11-05T19:56:26.797Z,100988.81
2022-11-05T20:01:31.486Z,100985.06
2022-11-05T20:06:38.579Z,100982.41
2022-11-05T20:11:44.974Z,100996.66
2022-11-05T20:16:48.504Z,100990.00
2022-11-05T20:21:52.190Z,101000.00
2022-11-05T20:26:57.579Z,100998.56
2022-11-05T20:32:02.020Z,100998.34
2022-11-05T20:37:05.528Z,100992.06
2022-11-05T20:42:10.329Z,100991.78
2022-11-05T20:47:13.799Z,100999.03
2022-11-05T20:52:17.295Z,101000.72
2022-11-05T20:57:22.311Z,100984.06
2022-11-05T21:02:25.881Z,100986.31
2022-11-05T21:07:29.411Z,101001.53
2022-11-05T21:12:34.218Z,100996.13
2022-11-05T21:17:37.799Z,100995.75
2022-11-05T21:22:43.038Z,101005.66
2022-11-05T21:27:47.777Z,101006.69
2022-11-05T21:32:51.238Z,100993.72
2022-11-05T21:37:54.690Z,101004.94
2022-11-05T21:42:59.531Z,100999.75
2022-11-05T21:48:02.915Z,100994.91
2022-11-05T21:53:23.604Z,100989.34
2022-11-05T21:58:45.859Z,100993.81
2022-11-05T22:03:49.288Z,100998.25
2022-11-05T22:08:52.676Z,100985.97
2022-11-05T22:13:57.503Z,100971.69
2022-11-05T22:19:00.902Z,100970.47
2022-11-05T22:24:04.668Z,100977.72
2022-11-05T22:29:09.561Z,100970.75
2022-11-05T22:34:13.318Z,100974.59
2022-11-05T22:39:16.776Z,100962.03
2022-11-05T22:44:21.793Z,100958.63
2022-11-05T22:49:25.249Z,100970.00
2022-11-05T22:54:28.885Z,100966.59
2022-11-05T22:59:33.713Z,100964.44
2022-11-05T23:04:37.319Z,100957.63
2022-11-05T23:09:58.121Z,100941.69
2022-11-05T23:15:05.587Z,100926.63
2022-11-05T23:20:30.172Z,100929.28
2022-11-05T23:25:33.560Z,100927.91
2022-11-05T23:31:00.139Z,100937.31
2022-11-05T23:36:21.460Z,100932.00
2022-11-05T23:41:42.338Z,100923.06
2022-11-05T23:47:04.445Z,100925.13
2022-11-05T23:52:07.828Z,100919.47
2022-11-05T23:57:11.229Z,100928.38
